createdAt,value
2022-08-28T00:00:41.443Z,3.50
2022-08-28T00:03:10.186Z,3.30
2022-08-28T00:05:38.982Z,3.70
2022-08-28T00:08:07.121Z,3.50
2022-08-28T00:10:39.455Z,3.40
2022-08-28T00:13:08.027Z,3.40
2022-08-28T00:15:38.427Z,3.60
2022-08-28T00:18:07.491Z,3.30
2022-08-28T00:20:35.899Z,3.40
2022-08-28T00:25:30.951Z,3.60
2022-08-28T00:28:00.763Z,3.10
2022-08-28T00:30:33.970Z,3.10
2022-08-28T00:33:08.943Z,3.90
2022-08-28T00:35:40.119Z,3.20
2022-08-28T00:38:12.723Z,3.70
2022-08-28T00:40:44.187Z,3.30
2022-08-28T00:43:29.712Z,3.60
2022-08-28T00:45:56.936Z,3.40
2022-08-28T00:48:24.053Z,3.40
2022-08-28T00:51:09.901Z,4.00
2022-08-28T00:53:37.517Z,3.20
2022-08-28T00:56:12.841Z,3.50
2022-08-28T00:58:41.728Z,3.30
2022-08-28T01:01:09.143Z,2.90
2022-08-28T01:03:37.335Z,4.50
2022-08-28T01:06:05.210Z,3.40
2022-08-28T01:08:33.774Z,3.10
2022-08-28T01:11:04.994Z,3.40
2022-08-28T01:13:33.781Z,4.20
2022-08-28T01:16:03.015Z,4.10
2022-08-28T01:18:32.607Z,3.60
2022-08-28T01:21:25.769Z,3.30
2022-08-28T01:24:04.352Z,3.70
2022-08-28T01:26:31.815Z,3.20
2022-08-28T01:28:59.843Z,4.20
2022-08-28T01:31:30.613Z,3.50
2022-08-28T01:34:00.617Z,3.30
2022-08-28T01:36:29.637Z,5.10
2022-08-28T01:39:11.566Z,3.50
2022-08-28T01:41:45.811Z,4.20
2022-08-28T01:44:18.115Z,3.70
2022-08-28T01:46:46.026Z,3.40
2022-08-28T01:49:13.661Z,3.90
2022-08-28T01:51:42.124Z,3.80
2022-08-28T01:56:41.081Z,3.10
2022-08-28T01:59:10.453Z,3.50
2022-08-28T02:01:39.393Z,3.40
2022-08-28T02:04:06.858Z,3.10
2022-08-28T02:06:34.586Z,3.30
2022-08-28T02:09:02.195Z,3.50
2022-08-28T02:11:31.606Z,3.10
2022-08-28T02:14:00.039Z,5.30
2022-08-28T02:16:29.045Z,3.50
2022-08-28T02:18:56.400Z,3.40
2022-08-28T02:21:23.890Z,3.20
2022-08-28T02:23:51.246Z,2.80
2022-08-28T02:26:18.723Z,5.30
2022-08-28T02:28:45.961Z,3.20
2022-08-28T02:31:13.087Z,3.50
2022-08-28T02:33:43.010Z,3.20
2022-08-28T02:36:13.418Z,3.20
2022-08-28T02:38:42.264Z,3.90
2022-08-28T02:41:10.155Z,3.70
2022-08-28T02:43:38.299Z,3.40
2022-08-28T02:46:06.411Z,3.70
2022-08-28T02:48:35.593Z,4.40
2022-08-28T02:51:11.608Z,4.10
2022-08-28T02:53:40.316Z,3.60
2022-08-28T02:56:08.703Z,3.30
2022-08-28T02:58:36.060Z,4.20
2022-08-28T03:01:06.368Z,3.10
2022-08-28T03:03:33.829Z,3.10
2022-08-28T03:08:31.634Z,3.00
2022-08-28T03:11:00.247Z,3.20
2022-08-28T03:15:55.776Z,3.20
2022-08-28T03:20:51.190Z,3.40
2022-08-28T03:23:27.133Z,3.20
2022-08-28T03:25:55.623Z,3.00
2022-08-28T03:28:24.559Z,3.70
2022-08-28T03:30:52.430Z,2.90
2022-08-28T03:33:20.398Z,2.90
2022-08-28T03:35:48.128Z,3.30
2022-08-28T03:38:16.419Z,3.60
2022-08-28T03:40:45.980Z,2.60
2022-08-28T03:43:15.810Z,3.10
2022-08-28T03:45:58.615Z,3.90
2022-08-28T03:48:27.953Z,3.50
2022-08-28T03:50:55.372Z,3.30
2022-08-28T03:53:24.922Z,3.30
2022-08-28T03:55:52.607Z,2.90
2022-08-28T03:58:19.883Z,4.30
2022-08-28T04:00:47.077Z,3.20
2022-08-28T04:03:14.230Z,3.50
2022-08-28T04:05:43.596Z,3.30
2022-08-28T04:08:16.100Z,3.00
2022-08-28T04:10:44.802Z,3.10
2022-08-28T04:15:40.752Z,3.30
2022-08-28T04:18:09.385Z,3.50
2022-08-28T04:20:37.035Z,3.20
2022-08-28T04:23:05.282Z,2.90
2022-08-28T04:25:32.397Z,3.20
2022-08-28T04:28:00.406Z,3.00
2022-08-28T04:30:27.493Z,3.10
2022-08-28T04:32:54.824Z,3.20
2022-08-28T04:35:21.894Z,3.10
2022-08-28T04:37:49.678Z,3.30
2022-08-28T04:40:16.652Z,3.40
2022-08-28T04:42:44.451Z,3.00
2022-08-28T04:45:12.901Z,2.90
2022-08-28T04:50:07.416Z,4.50
2022-08-28T04:52:34.383Z,4.50
2022-08-28T04:55:01.521Z,3.90
2022-08-28T04:57:29.769Z,3.80
2022-08-28T04:59:58.494Z,3.80
2022-08-28T05:02:25.957Z,3.60
2022-08-28T05:04:53.086Z,4.70
2022-08-28T05:07:19.936Z,4.10
2022-08-28T05:09:46.764Z,3.70
2022-08-28T05:12:16.726Z,3.90
2022-08-28T05:14:44.004Z,4.20
2022-08-28T05:17:13.755Z,3.70
2022-08-28T05:19:41.740Z,3.40
2022-08-28T05:22:09.421Z,3.70
2022-08-28T05:24:38.918Z,3.50
2022-08-28T05:29:33.091Z,3.70
2022-08-28T05:32:00.517Z,3.60
2022-08-28T05:34:27.519Z,3.50
2022-08-28T05:36:54.797Z,4.20
2022-08-28T05:39:21.949Z,3.30
2022-08-28T05:41:49.378Z,4.20
2022-08-28T05:44:17.495Z,3.80
2022-08-28T05:46:49.192Z,3.90
2022-08-28T05:49:18.743Z,3.50
2022-08-28T05:51:46.417Z,4.40
2022-08-28T05:54:15.059Z,3.80
2022-08-28T05:56:43.798Z,4.30
2022-08-28T05:59:11.451Z,3.80
2022-08-28T06:01:47.707Z,5.10
2022-08-28T06:04:19.054Z,4.60
2022-08-28T06:06:46.226Z,4.00
2022-08-28T06:09:28.986Z,4.00
2022-08-28T06:12:01.913Z,3.60
2022-08-28T06:14:29.766Z,3.80
2022-08-28T06:16:57.689Z,4.50
2022-08-28T06:19:27.157Z,4.40
2022-08-28T06:21:56.588Z,3.50
2022-08-28T06:24:25.267Z,3.40
2022-08-28T06:26:52.411Z,4.00
2022-08-28T06:29:22.112Z,4.50
2022-08-28T06:31:59.308Z,3.80
2022-08-28T06:34:27.575Z,3.90
2022-08-28T06:36:54.860Z,4.30
2022-08-28T06:41:51.210Z,4.70
2022-08-28T06:44:20.521Z,3.80
2022-08-28T06:46:50.111Z,4.60
2022-08-28T06:49:17.220Z,4.00
2022-08-28T06:51:44.406Z,4.50
2022-08-28T06:54:16.309Z,4.60
2022-08-28T06:56:46.825Z,4.00
2022-08-28T06:59:14.259Z,4.30
2022-08-28T07:01:44.945Z,3.90
2022-08-28T07:04:14.002Z,3.90
2022-08-28T07:06:54.904Z,4.00
2022-08-28T07:09:23.864Z,5.40
2022-08-28T07:11:57.161Z,4.10
2022-08-28T07:14:25.857Z,4.00
2022-08-28T07:16:54.131Z,3.90
2022-08-28T07:19:21.299Z,4.00
2022-08-28T07:24:47.870Z,4.00
2022-08-28T07:27:18.903Z,4.00
2022-08-28T07:29:49.020Z,4.00
2022-08-28T07:32:16.803Z,3.70
2022-08-28T07:34:43.911Z,3.90
2022-08-28T07:37:15.132Z,4.40
2022-08-28T07:39:46.206Z,3.90
2022-08-28T07:42:30.358Z,4.30
2022-08-28T07:44:59.060Z,4.30
2022-08-28T07:47:32.385Z,4.50
2022-08-28T07:50:00.149Z,4.10
2022-08-28T07:54:56.787Z,4.00
2022-08-28T07:57:25.464Z,3.90
2022-08-28T07:59:53.143Z,4.10
2022-08-28T08:02:20.525Z,4.40
2022-08-28T08:04:47.466Z,4.00
2022-08-28T08:07:17.207Z,4.40
2022-08-28T08:09:45.948Z,3.80
2022-08-28T08:12:14.412Z,3.70
2022-08-28T08:14:43.258Z,4.10
2022-08-28T08:17:12.949Z,3.60
2022-08-28T08:19:40.403Z,4.10
2022-08-28T08:22:11.859Z,3.90
2022-08-28T08:24:38.899Z,4.10
2022-08-28T08:27:06.222Z,3.90
2022-08-28T08:29:35.286Z,3.70
2022-08-28T08:32:08.003Z,3.80
2022-08-28T08:34:39.632Z,4.40
2022-08-28T08:37:07.376Z,4.00
2022-08-28T08:39:54.821Z,4.70
2022-08-28T08:42:26.052Z,4.10
2022-08-28T08:44:55.859Z,3.80
2022-08-28T08:47:30.717Z,4.70
2022-08-28T08:50:01.480Z,5.00
2022-08-28T08:52:46.323Z,4.50
2022-08-28T08:55:36.919Z,4.40
2022-08-28T08:58:08.862Z,4.40
2022-08-28T09:01:02.922Z,4.60
2022-08-28T09:03:35.905Z,4.10
2022-08-28T09:06:05.497Z,4.20
2022-08-28T09:09:11.716Z,4.50
2022-08-28T09:11:41.783Z,4.60
2022-08-28T09:14:27.088Z,4.70
2022-08-28T09:17:03.171Z,5.20
2022-08-28T09:22:05.915Z,4.80
2022-08-28T09:24:51.089Z,5.00
2022-08-28T09:27:31.766Z,5.10
2022-08-28T09:30:07.522Z,5.30
2022-08-28T09:33:00.502Z,5.50
2022-08-28T09:35:31.202Z,5.20
2022-08-28T09:38:28.303Z,5.30
2022-08-28T09:41:31.688Z,4.80
2022-08-28T09:43:59.282Z,5.40
2022-08-28T09:46:31.621Z,5.70
2022-08-28T09:49:07.087Z,5.80
2022-08-28T09:51:38.130Z,5.30
2022-08-28T09:54:18.581Z,5.20
2022-08-28T09:56:46.768Z,5.60
2022-08-28T09:59:20.824Z,5.50
2022-08-28T10:04:25.903Z,5.30
2022-08-28T10:07:12.394Z,6.60
2022-08-28T10:09:54.306Z,5.70
2022-08-28T10:12:35.847Z,5.90
2022-08-28T10:15:43.088Z,5.60
2022-08-28T10:18:35.826Z,5.90
2022-08-28T10:21:43.958Z,5.70
2022-08-28T10:24:37.881Z,6.10
2022-08-28T10:27:20.208Z,5.50
2022-08-28T10:30:25.974Z,5.40
2022-08-28T10:33:55.859Z,5.40
2022-08-28T10:36:58.155Z,5.70
2022-08-28T10:39:47.826Z,5.80
2022-08-28T10:42:36.481Z,5.60
2022-08-28T10:45:14.603Z,6.20
2022-08-28T10:48:13.063Z,5.70
2022-08-28T10:51:02.488Z,5.50
2022-08-28T10:53:53.893Z,5.20
2022-08-28T10:59:48.421Z,6.30
2022-08-28T11:03:02.764Z,5.50
2022-08-28T11:06:01.291Z,6.30
2022-08-28T11:08:33.329Z,5.90
2022-08-28T11:11:11.141Z,6.20
2022-08-28T11:14:21.967Z,6.30
2022-08-28T11:16:50.814Z,6.20
2022-08-28T11:20:17.861Z,6.40
2022-08-28T11:23:16.134Z,6.50
2022-08-28T11:25:54.093Z,6.90
2022-08-28T11:28:24.210Z,6.80
2022-08-28T11:36:11.764Z,6.60
2022-08-28T11:39:19.117Z,7.10
2022-08-28T11:42:09.844Z,7.50
2022-08-28T11:45:00.637Z,7.00
2022-08-28T11:47:48.123Z,7.30
2022-08-28T11:50:22.411Z,7.20
2022-08-28T11:53:18.715Z,6.40
2022-08-28T11:56:31.421Z,6.90
2022-08-28T11:59:08.091Z,6.20
2022-08-28T12:01:38.781Z,6.10
2022-08-28T12:04:09.422Z,6.00
2022-08-28T12:07:40.099Z,6.30
2022-08-28T12:10:13.027Z,5.60
2022-08-28T12:12:46.280Z,5.60
2022-08-28T12:15:34.997Z,6.40
2022-08-28T12:18:34.288Z,5.70
2022-08-28T12:21:06.118Z,5.20
2022-08-28T12:23:38.993Z,5.90
2022-08-28T12:26:26.918Z,7.00
2022-08-28T12:29:02.970Z,6.20
2022-08-28T12:31:53.897Z,7.30
2022-08-28T12:34:26.011Z,6.00
2022-08-28T12:37:08.811Z,5.20
2022-08-28T12:39:37.903Z,4.90
2022-08-28T12:42:17.941Z,5.50
2022-08-28T12:44:45.971Z,5.30
2022-08-28T12:47:18.279Z,4.10
2022-08-28T12:49:45.400Z,4.50
2022-08-28T12:52:23.937Z,4.90
2022-08-28T12:54:55.222Z,5.60
2022-08-28T12:57:28.388Z,6.10
2022-08-28T13:00:14.139Z,5.70
2022-08-28T13:02:41.902Z,4.90
2022-08-28T13:05:12.911Z,6.50
2022-08-28T13:07:52.002Z,6.40
2022-08-28T13:10:24.073Z,7.00
2022-08-28T13:13:05.179Z,8.10
2022-08-28T13:15:51.062Z,6.40
2022-08-28T13:21:47.254Z,5.20
2022-08-28T13:24:21.010Z,5.70
2022-08-28T13:27:18.534Z,6.00
2022-08-28T13:32:27.823Z,5.80
2022-08-28T13:37:43.528Z,5.90
2022-08-28T13:40:30.377Z,5.20
2022-08-28T13:42:47.855Z,6.00
2022-08-28T13:47:44.839Z,5.50
2022-08-28T13:50:16.156Z,5.40
2022-08-28T13:55:15.747Z,5.20
2022-08-28T13:57:44.980Z,5.90
2022-08-28T14:00:14.152Z,5.20
2022-08-28T14:02:51.841Z,4.70
2022-08-28T14:05:27.767Z,5.10
2022-08-28T14:07:55.455Z,4.70
2022-08-28T14:12:52.313Z,6.30
2022-08-28T14:15:19.834Z,5.40
2022-08-28T14:17:47.087Z,5.70
2022-08-28T14:20:14.938Z,6.20
2022-08-28T14:22:42.711Z,6.20
2022-08-28T14:25:10.821Z,5.80
2022-08-28T14:27:43.094Z,5.90
2022-08-28T14:30:11.468Z,6.00
2022-08-28T14:32:38.969Z,5.60
2022-08-28T14:35:13.958Z,6.80
2022-08-28T14:37:41.309Z,5.70
2022-08-28T14:40:09.532Z,5.90
2022-08-28T14:42:36.358Z,6.30
2022-08-28T14:45:03.936Z,5.80
2022-08-28T14:47:31.002Z,5.80
2022-08-28T14:50:06.154Z,5.70
2022-08-28T14:52:34.602Z,6.00
2022-08-28T14:55:03.638Z,5.80
2022-08-28T14:58:09.454Z,5.30
2022-08-28T15:00:46.049Z,6.10
2022-08-28T15:03:17.897Z,5.40
2022-08-28T15:06:02.969Z,6.40
2022-08-28T15:08:30.642Z,6.30
2022-08-28T15:10:58.182Z,5.70
2022-08-28T15:13:25.316Z,5.60
2022-08-28T15:16:15.996Z,6.00
2022-08-28T15:18:45.708Z,5.50
2022-08-28T15:21:24.060Z,6.00
2022-08-28T15:23:52.795Z,7.10
2022-08-28T15:26:25.872Z,5.90
2022-08-28T15:28:55.447Z,5.60
2022-08-28T15:31:24.069Z,6.40
2022-08-28T15:33:51.504Z,5.40
2022-08-28T15:36:19.231Z,5.50
2022-08-28T15:38:58.773Z,5.50
2022-08-28T15:41:26.225Z,5.80
2022-08-28T15:43:54.582Z,6.30
2022-08-28T15:46:23.036Z,6.00
2022-08-28T15:48:50.546Z,5.60
2022-08-28T15:51:25.175Z,6.70
2022-08-28T15:53:52.911Z,6.50
2022-08-28T15:56:24.979Z,6.30
2022-08-28T15:58:52.519Z,6.20
2022-08-28T16:01:26.804Z,6.30
2022-08-28T16:03:53.907Z,5.50
2022-08-28T16:06:21.992Z,5.20
2022-08-28T16:08:56.194Z,6.10
2022-08-28T16:11:23.629Z,6.20
2022-08-28T16:13:54.921Z,5.70
2022-08-28T16:16:22.263Z,7.00
2022-08-28T16:18:49.561Z,6.40
2022-08-28T16:21:17.045Z,7.90
2022-08-28T16:23:44.171Z,20.80
2022-08-28T16:26:11.660Z,66.80
2022-08-28T16:28:44.116Z,56.40
2022-08-28T16:31:19.160Z,34.00
2022-08-28T16:33:45.433Z,22.00
2022-08-28T16:38:42.434Z,9.40
2022-08-28T16:41:19.076Z,7.30
2022-08-28T16:43:52.964Z,6.00
2022-08-28T16:46:23.130Z,6.20
2022-08-28T16:48:51.386Z,6.40
2022-08-28T16:51:19.167Z,5.60
2022-08-28T16:53:46.723Z,5.70
2022-08-28T16:56:16.037Z,5.90
2022-08-28T16:58:43.648Z,5.10
2022-08-28T17:01:12.011Z,5.70
2022-08-28T17:03:40.999Z,5.50
2022-08-28T17:06:20.261Z,5.20
2022-08-28T17:08:47.568Z,4.70
2022-08-28T17:11:16.259Z,5.80
2022-08-28T17:13:43.608Z,5.90
2022-08-28T17:16:15.022Z,6.30
2022-08-28T17:18:48.185Z,6.00
2022-08-28T17:26:36.308Z,6.00
2022-08-28T17:29:04.250Z,5.60
2022-08-28T17:31:31.652Z,7.70
2022-08-28T17:33:58.707Z,7.60
2022-08-28T17:36:33.194Z,6.50
2022-08-28T17:39:04.015Z,5.50
2022-08-28T17:41:33.198Z,4.80
2022-08-28T17:44:01.955Z,5.50
2022-08-28T17:46:30.972Z,6.20
2022-08-28T17:49:01.864Z,6.30
2022-08-28T17:51:42.951Z,5.60
2022-08-28T17:54:12.819Z,6.00
2022-08-28T17:56:40.726Z,5.40
2022-08-28T17:59:07.561Z,6.00
2022-08-28T18:01:35.629Z,6.50
2022-08-28T18:04:04.595Z,6.50
2022-08-28T18:06:31.986Z,5.70
2022-08-28T18:08:59.946Z,5.80
2022-08-28T18:11:27.871Z,5.50
2022-08-28T18:13:55.145Z,4.60
2022-08-28T18:16:24.535Z,4.10
2022-08-28T18:18:53.914Z,4.40
2022-08-28T18:21:20.899Z,4.50
2022-08-28T18:23:48.149Z,5.10
2022-08-28T18:26:16.990Z,5.00
2022-08-28T18:28:44.191Z,5.20
2022-08-28T18:31:11.594Z,5.40
2022-08-28T18:33:47.308Z,4.70
2022-08-28T18:36:15.535Z,5.00
2022-08-28T18:38:43.619Z,7.00
2022-08-28T18:41:11.540Z,8.90
2022-08-28T18:43:39.220Z,5.50
2022-08-28T18:46:08.574Z,6.50
2022-08-28T18:48:36.930Z,4.90
2022-08-28T18:51:08.809Z,4.90
2022-08-28T18:53:36.912Z,5.40
2022-08-28T18:56:04.917Z,5.30
2022-08-28T18:58:33.267Z,5.40
2022-08-28T19:01:01.765Z,4.40
2022-08-28T19:03:29.757Z,4.20
2022-08-28T19:05:57.023Z,4.60
2022-08-28T19:08:24.696Z,3.90
2022-08-28T19:10:52.520Z,4.60
2022-08-28T19:13:19.865Z,4.10
2022-08-28T19:15:52.096Z,4.40
2022-08-28T19:18:19.511Z,4.00
2022-08-28T19:20:46.786Z,4.10
2022-08-28T19:23:17.377Z,4.10
2022-08-28T19:25:45.405Z,4.00
2022-08-28T19:28:13.076Z,4.00
2022-08-28T19:30:40.543Z,4.00
2022-08-28T19:33:07.833Z,4.70
2022-08-28T19:35:35.239Z,3.90
2022-08-28T19:38:02.524Z,4.40
2022-08-28T19:40:31.048Z,3.80
2022-08-28T19:42:58.367Z,4.60
2022-08-28T19:45:28.139Z,4.60
2022-08-28T19:47:55.353Z,4.10
2022-08-28T19:50:22.731Z,3.90
2022-08-28T19:52:50.163Z,4.50
2022-08-28T19:55:20.784Z,4.10
2022-08-28T19:57:48.695Z,4.50
2022-08-28T20:00:18.807Z,4.50
2022-08-28T20:02:47.508Z,4.30
2022-08-28T20:05:15.167Z,4.30
2022-08-28T20:07:42.818Z,3.90
2022-08-28T20:10:11.835Z,3.60
2022-08-28T20:12:39.623Z,3.90
2022-08-28T20:15:17.504Z,4.80
2022-08-28T20:17:49.708Z,4.50
2022-08-28T20:20:20.115Z,4.30
2022-08-28T20:22:48.263Z,4.40
2022-08-28T20:25:21.374Z,4.10
2022-08-28T20:27:48.297Z,4.10
2022-08-28T20:30:15.778Z,4.40
2022-08-28T20:32:42.971Z,4.10
2022-08-28T20:35:12.121Z,4.20
2022-08-28T20:37:44.526Z,4.30
2022-08-28T20:40:16.580Z,3.90
2022-08-28T20:42:44.135Z,4.10
2022-08-28T20:45:12.016Z,4.40
2022-08-28T20:47:39.503Z,4.40
2022-08-28T20:50:07.259Z,3.50
2022-08-28T20:52:34.517Z,4.00
2022-08-28T20:55:02.140Z,3.30
2022-08-28T20:57:29.368Z,4.30
2022-08-28T20:59:56.918Z,4.10
2022-08-28T21:02:26.494Z,3.70
2022-08-28T21:04:54.757Z,4.30
2022-08-28T21:07:24.027Z,4.00
2022-08-28T21:10:05.657Z,3.80
2022-08-28T21:12:37.224Z,4.00
2022-08-28T21:15:10.375Z,4.50
2022-08-28T21:17:39.004Z,4.10
2022-08-28T21:20:10.766Z,3.80
2022-08-28T21:22:38.594Z,3.90
2022-08-28T21:25:09.000Z,3.40
2022-08-28T21:27:36.683Z,4.00
2022-08-28T21:30:06.225Z,3.60
2022-08-28T21:32:33.996Z,4.20
2022-08-28T21:35:02.325Z,4.20
2022-08-28T21:37:29.566Z,4.30
2022-08-28T21:39:58.933Z,4.10
2022-08-28T21:42:27.363Z,4.20
2022-08-28T21:44:54.621Z,4.50
2022-08-28T21:47:23.398Z,3.80
2022-08-28T21:49:52.671Z,4.70
2022-08-28T21:52:21.355Z,4.30
2022-08-28T21:54:48.846Z,4.00
2022-08-28T21:57:17.191Z,4.10
2022-08-28T21:59:44.307Z,3.70
2022-08-28T22:02:11.639Z,4.10
2022-08-28T22:04:38.766Z,4.20
2022-08-28T22:07:06.223Z,3.70
2022-08-28T22:09:33.214Z,3.60
2022-08-28T22:12:00.826Z,3.60
2022-08-28T22:14:28.392Z,4.10
2022-08-28T22:16:56.174Z,4.70
2022-08-28T22:19:23.635Z,3.90
2022-08-28T22:22:03.881Z,6.00
2022-08-28T22:24:31.246Z,4.00
2022-08-28T22:26:58.526Z,4.00
2022-08-28T22:29:26.079Z,3.90
2022-08-28T22:31:53.083Z,3.70
2022-08-28T22:34:20.287Z,4.60
2022-08-28T22:36:48.267Z,4.20
2022-08-28T22:39:15.403Z,4.20
2022-08-28T22:41:42.930Z,4.50
2022-08-28T22:44:10.506Z,3.70
2022-08-28T22:46:37.889Z,4.30
2022-08-28T22:49:05.218Z,4.20
2022-08-28T22:51:34.248Z,4.00
2022-08-28T22:54:01.703Z,4.00
2022-08-28T22:56:29.802Z,4.90
2022-08-28T22:58:58.814Z,3.80
2022-08-28T23:01:26.388Z,4.20
2022-08-28T23:03:54.042Z,4.40
2022-08-28T23:06:22.248Z,4.20
2022-08-28T23:08:49.744Z,4.50
2022-08-28T23:11:17.549Z,4.30
2022-08-28T23:13:44.695Z,4.10
2022-08-28T23:16:12.620Z,4.00
2022-08-28T23:19:06.499Z,4.00
2022-08-28T23:21:16.439Z,4.20
2022-08-28T23:23:47.102Z,4.40
2022-08-28T23:26:16.618Z,3.90
2022-08-28T23:28:44.880Z,4.20
2022-08-28T23:31:13.977Z,5.20
2022-08-28T23:33:41.750Z,4.70
2022-08-28T23:36:10.078Z,4.30
2022-08-28T23:38:42.853Z,4.80
2022-08-28T23:41:11.817Z,5.20
2022-08-28T23:43:40.495Z,4.70
2022-08-28T23:46:13.499Z,4.90
2022-08-28T23:48:42.726Z,4.10
2022-08-28T23:51:14.104Z,5.00
2022-08-28T23:53:42.973Z,6.50
2022-08-28T23:56:12.839Z,5.40
2022-08-28T23:58:43.192Z,4.30
